createdAt,value
2023-01-13T00:01:19.428Z,98333.39
2023-01-13T00:03:46.743Z,98333.52
2023-01-13T00:06:18.385Z,98327.95
2023-01-13T00:08:48.495Z,98321.02
2023-01-13T00:11:15.955Z,98311.34
2023-01-13T00:13:43.297Z,98312.64
2023-01-13T00:16:12.992Z,98313.15
2023-01-13T00:18:40.033Z,98307.98
2023-01-13T00:21:11.752Z,98311.79
2023-01-13T00:23:40.059Z,98314.36
2023-01-13T00:26:12.961Z,98313.70
2023-01-13T00:28:40.425Z,98311.91
2023-01-13T00:31:09.086Z,98310.88
2023-01-13T00:33:37.270Z,98308.95
2023-01-13T00:36:06.000Z,98310.31
2023-01-13T00:38:35.637Z,98309.91
2023-01-13T00:41:06.093Z,98315.55
2023-01-13T00:43:35.388Z,98317.98
2023-01-13T00:46:04.197Z,98316.08
2023-01-13T00:48:31.911Z,98318.45
2023-01-13T00:51:04.391Z,98321.15
2023-01-13T00:53:35.341Z,98320.15
2023-01-13T00:56:15.038Z,98315.98
2023-01-13T00:58:43.549Z,98312.00
2023-01-13T01:01:13.291Z,98309.73
2023-01-13T01:03:41.143Z,98310.98
2023-01-13T01:06:12.762Z,98314.74
2023-01-13T01:08:39.931Z,98313.22
2023-01-13T01:11:09.774Z,98315.37
2023-01-13T01:13:37.194Z,98307.57
2023-01-13T01:16:09.392Z,98304.36
2023-01-13T01:18:42.468Z,98296.05
2023-01-13T01:21:10.934Z,98293.05
2023-01-13T01:23:39.366Z,98286.77
2023-01-13T01:26:09.269Z,98284.27
2023-01-13T01:28:36.669Z,98284.88
2023-01-13T01:31:13.685Z,98287.21
2023-01-13T01:33:41.593Z,98287.02
2023-01-13T01:36:10.226Z,98288.80
2023-01-13T01:38:37.751Z,98286.55
2023-01-13T01:41:05.294Z,98282.85
2023-01-13T01:44:08.506Z,98281.59
2023-01-13T01:46:37.583Z,98284.13
2023-01-13T01:49:26.608Z,98283.45
2023-01-13T01:52:02.638Z,98282.34
2023-01-13T01:54:35.371Z,98270.84
2023-01-13T01:57:02.655Z,98265.25
2023-01-13T01:59:33.009Z,98262.33
2023-01-13T02:02:00.554Z,98260.54
2023-01-13T02:04:36.717Z,98256.91
2023-01-13T02:07:04.899Z,98253.98
2023-01-13T02:09:33.369Z,98248.56
2023-01-13T02:12:20.042Z,98244.23
2023-01-13T02:14:47.785Z,98242.39
2023-01-13T02:17:40.803Z,98242.20
2023-01-13T02:20:50.197Z,98242.25
2023-01-13T02:24:03.549Z,98238.88
2023-01-13T02:26:53.075Z,98233.55
2023-01-13T02:30:10.808Z,98230.01
2023-01-13T02:32:56.189Z,98223.21
2023-01-13T02:35:29.545Z,98220.77
2023-01-13T02:37:59.906Z,98211.58
2023-01-13T02:40:41.231Z,98215.55
2023-01-13T02:43:51.631Z,98214.04
2023-01-13T02:46:30.508Z,98215.97
2023-01-13T02:49:05.275Z,98211.91
2023-01-13T02:51:34.155Z,98213.35
2023-01-13T02:54:08.027Z,98217.25
2023-01-13T02:56:40.908Z,98221.32
2023-01-13T02:59:09.678Z,98217.60
2023-01-13T03:01:37.551Z,98211.71
2023-01-13T03:04:15.809Z,98211.25
2023-01-13T03:07:02.191Z,98212.02
2023-01-13T03:09:43.829Z,98211.52
2023-01-13T03:12:17.024Z,98209.68
2023-01-13T03:15:13.757Z,98210.81
2023-01-13T03:17:50.325Z,98211.42
2023-01-13T03:20:25.929Z,98210.62
2023-01-13T03:23:07.249Z,98206.31
2023-01-13T03:25:51.259Z,98205.35
2023-01-13T03:28:30.123Z,98204.44
2023-01-13T03:31:08.585Z,98206.09
2023-01-13T03:33:41.404Z,98206.69
2023-01-13T03:36:11.730Z,98208.64
2023-01-13T03:38:48.314Z,98208.56
2023-01-13T03:41:22.689Z,98206.34
2023-01-13T03:44:15.121Z,98210.59
2023-01-13T03:46:51.362Z,98206.88
2023-01-13T03:49:24.206Z,98206.46
2023-01-13T03:51:57.156Z,98201.96
2023-01-13T03:54:28.400Z,98207.11
2023-01-13T03:57:00.776Z,98204.00
2023-01-13T03:59:33.935Z,98201.92
2023-01-13T04:02:07.452Z,98199.59
2023-01-13T04:04:45.087Z,98201.09
2023-01-13T04:07:32.258Z,98199.40
2023-01-13T04:10:06.883Z,98198.20
2023-01-13T04:13:00.177Z,98198.42
2023-01-13T04:15:31.365Z,98198.52
2023-01-13T04:18:17.962Z,98202.13
2023-01-13T04:20:46.875Z,98207.62
2023-01-13T04:23:14.014Z,98205.95
2023-01-13T04:25:42.766Z,98211.87
2023-01-13T04:28:11.406Z,98203.71
2023-01-13T04:30:39.209Z,98203.33
2023-01-13T04:33:06.729Z,98202.41
2023-01-13T04:35:35.611Z,98191.82
2023-01-13T04:38:08.606Z,98186.64
2023-01-13T04:40:35.622Z,98192.56
2023-01-13T04:43:03.505Z,98190.89
2023-01-13T04:45:36.941Z,98188.66
2023-01-13T04:48:09.908Z,98185.95
2023-01-13T04:50:37.019Z,98184.15
2023-01-13T04:53:04.170Z,98178.51
2023-01-13T04:55:32.577Z,98179.66
2023-01-13T04:58:04.797Z,98180.83
2023-01-13T05:00:32.373Z,98178.67
2023-01-13T05:02:59.931Z,98182.55
2023-01-13T05:05:29.104Z,98180.52
2023-01-13T05:07:56.300Z,98187.77
2023-01-13T05:10:24.129Z,98189.67
2023-01-13T05:13:09.816Z,98195.33
2023-01-13T05:15:56.068Z,98195.51
2023-01-13T05:18:23.376Z,98199.71
2023-01-13T05:20:50.497Z,98193.33
2023-01-13T05:23:36.495Z,98191.75
2023-01-13T05:26:03.445Z,98194.95
2023-01-13T05:28:34.575Z,98194.38
2023-01-13T05:31:09.050Z,98189.72
2023-01-13T05:33:36.390Z,98189.95
2023-01-13T05:36:04.318Z,98188.14
2023-01-13T05:38:31.358Z,98192.05
2023-01-13T05:41:36.803Z,98183.35
2023-01-13T05:44:04.106Z,98185.80
2023-01-13T05:46:31.256Z,98186.38
2023-01-13T05:49:00.339Z,98184.13
2023-01-13T05:51:27.781Z,98190.20
2023-01-13T05:53:55.078Z,98191.30
2023-01-13T05:56:22.255Z,98190.33
2023-01-13T05:58:49.495Z,98195.65
2023-01-13T06:01:16.618Z,98196.88
2023-01-13T06:03:43.584Z,98194.21
2023-01-13T06:06:10.918Z,98195.56
2023-01-13T06:08:39.748Z,98194.94
2023-01-13T06:11:07.859Z,98193.87
2023-01-13T06:13:35.044Z,98197.72
2023-01-13T06:16:02.168Z,98196.84
2023-01-13T06:18:29.636Z,98199.02
2023-01-13T06:20:57.113Z,98196.73
2023-01-13T06:23:24.853Z,98196.30
2023-01-13T06:26:16.577Z,98200.16
2023-01-13T06:28:43.787Z,98199.98
2023-01-13T06:31:11.809Z,98200.83
2023-01-13T06:33:49.875Z,98207.23
2023-01-13T06:36:22.561Z,98202.52
2023-01-13T06:38:54.661Z,98202.11
2023-01-13T06:41:42.823Z,98203.48
2023-01-13T06:44:10.545Z,98203.21
2023-01-13T06:46:37.788Z,98204.02
2023-01-13T06:49:05.220Z,98208.77
2023-01-13T06:51:32.342Z,98213.66
2023-01-13T06:53:59.559Z,98212.56
2023-01-13T06:56:27.002Z,98207.95
2023-01-13T06:58:54.046Z,98208.03
2023-01-13T07:01:21.505Z,98203.41
2023-01-13T07:03:48.983Z,98201.08
2023-01-13T07:06:16.121Z,98198.55
2023-01-13T07:08:43.303Z,98194.68
2023-01-13T07:11:11.381Z,98193.77
2023-01-13T07:13:57.841Z,98196.82
2023-01-13T07:16:25.563Z,98199.34
2023-01-13T07:18:52.579Z,98201.73
2023-01-13T07:21:20.491Z,98198.86
2023-01-13T07:23:48.844Z,98199.69
2023-01-13T07:26:17.041Z,98204.08
2023-01-13T07:28:43.984Z,98208.63
2023-01-13T07:31:21.557Z,98204.64
2023-01-13T07:33:49.026Z,98200.58
2023-01-13T07:36:16.342Z,98199.35
2023-01-13T07:38:44.961Z,98198.50
2023-01-13T07:41:34.950Z,98200.27
2023-01-13T07:44:05.474Z,98201.71
2023-01-13T07:46:34.031Z,98198.02
2023-01-13T07:49:01.199Z,98193.46
2023-01-13T07:51:28.454Z,98190.62
2023-01-13T07:53:55.506Z,98189.77
2023-01-13T07:56:22.559Z,98183.03
2023-01-13T07:58:51.545Z,98183.73
2023-01-13T08:01:19.921Z,98180.39
2023-01-13T08:03:47.711Z,98184.23
2023-01-13T08:06:15.714Z,98188.11
2023-01-13T08:08:42.896Z,98190.10
2023-01-13T08:11:10.050Z,98192.23
2023-01-13T08:13:37.726Z,98191.08
2023-01-13T08:16:07.865Z,98191.52
2023-01-13T08:18:35.981Z,98192.14
2023-01-13T08:21:06.919Z,98197.36
2023-01-13T08:23:34.782Z,98198.30
2023-01-13T08:26:03.573Z,98202.06
2023-01-13T08:28:31.062Z,98202.96
2023-01-13T08:31:06.568Z,98211.14
2023-01-13T08:33:34.587Z,98211.45
2023-01-13T08:36:06.864Z,98214.41
2023-01-13T08:38:35.805Z,98214.05
2023-01-13T08:41:09.799Z,98215.65
2023-01-13T08:43:37.312Z,98217.87
2023-01-13T08:46:05.391Z,98222.77
2023-01-13T08:48:33.542Z,98223.92
2023-01-13T08:51:08.530Z,98226.92
2023-01-13T08:53:36.112Z,98226.13
2023-01-13T08:56:08.698Z,98229.64
2023-01-13T08:58:35.623Z,98225.80
2023-01-13T09:01:07.041Z,98224.23
2023-01-13T09:03:34.589Z,98222.97
2023-01-13T09:06:13.497Z,98220.20
2023-01-13T09:08:49.859Z,98223.42
2023-01-13T09:11:45.012Z,98223.61
2023-01-13T09:14:12.112Z,98235.28
2023-01-13T09:16:39.196Z,98235.00
2023-01-13T09:19:06.556Z,98237.96
2023-01-13T09:21:34.397Z,98230.05
2023-01-13T09:24:01.976Z,98230.74
2023-01-13T09:26:29.041Z,98226.61
2023-01-13T09:28:56.636Z,98221.52
2023-01-13T09:31:23.910Z,98218.01
2023-01-13T09:34:10.079Z,98213.27
2023-01-13T09:36:37.439Z,98212.23
2023-01-13T09:39:04.888Z,98207.16
2023-01-13T09:42:05.239Z,98205.71
2023-01-13T09:45:04.965Z,98199.30
2023-01-13T09:47:44.187Z,98196.95
2023-01-13T09:50:14.503Z,98193.73
2023-01-13T09:52:46.079Z,98192.27
2023-01-13T09:55:17.954Z,98195.97
2023-01-13T09:57:45.488Z,98197.88
2023-01-13T10:00:38.472Z,98194.95
2023-01-13T10:03:23.648Z,98189.48
2023-01-13T10:06:30.065Z,98188.67
2023-01-13T10:08:58.327Z,98183.75
2023-01-13T10:12:01.231Z,98179.62
2023-01-13T10:14:40.495Z,98173.69
2023-01-13T10:17:29.614Z,98171.41
2023-01-13T10:20:15.835Z,98166.32
2023-01-13T10:23:19.029Z,98165.56
2023-01-13T10:25:55.907Z,98168.08
2023-01-13T10:28:24.382Z,98170.18
2023-01-13T10:30:52.089Z,98170.38
2023-01-13T10:33:27.595Z,98171.96
2023-01-13T10:36:00.819Z,98165.69
2023-01-13T10:38:42.029Z,98162.58
2023-01-13T10:41:15.593Z,98153.94
2023-01-13T10:43:59.025Z,98152.26
2023-01-13T10:46:27.556Z,98150.81
2023-01-13T10:48:57.204Z,98145.11
2023-01-13T10:51:28.644Z,98147.61
2023-01-13T10:54:14.323Z,98146.71
2023-01-13T10:56:45.351Z,98140.02
2023-01-13T10:59:30.312Z,98137.02
2023-01-13T11:02:25.886Z,98134.19
2023-01-13T11:04:54.021Z,98136.20
2023-01-13T11:07:35.272Z,98132.89
2023-01-13T11:10:23.839Z,98134.61
2023-01-13T11:12:54.925Z,98133.48
2023-01-13T11:15:32.438Z,98129.05
2023-01-13T11:18:10.825Z,98129.92
2023-01-13T11:20:42.447Z,98129.96
2023-01-13T11:23:25.818Z,98130.80
2023-01-13T11:25:59.779Z,98127.95
2023-01-13T11:28:39.100Z,98120.05
2023-01-13T11:31:21.663Z,98116.61
2023-01-13T11:34:02.119Z,98111.50
2023-01-13T11:36:39.218Z,98115.05
2023-01-13T11:39:28.463Z,98109.58
2023-01-13T11:42:25.757Z,98102.30
2023-01-13T11:45:08.158Z,98096.54
2023-01-13T11:47:36.676Z,98091.75
2023-01-13T11:50:04.833Z,98094.55
2023-01-13T11:53:06.337Z,98093.46
2023-01-13T11:55:47.815Z,98095.00
2023-01-13T11:58:45.619Z,98096.20
2023-01-13T12:01:40.870Z,98092.35
2023-01-13T12:04:41.522Z,98091.85
2023-01-13T12:07:23.441Z,98092.96
2023-01-13T12:10:13.388Z,98088.14
2023-01-13T12:13:01.319Z,98085.44
2023-01-13T12:15:36.043Z,98089.48
2023-01-13T12:18:51.625Z,98088.68
2023-01-13T12:21:27.861Z,98089.66
2023-01-13T12:24:13.927Z,98090.62
2023-01-13T12:26:56.658Z,98087.48
2023-01-13T12:29:31.863Z,98091.45
2023-01-13T12:32:02.502Z,98096.70
2023-01-13T12:34:38.896Z,98091.52
2023-01-13T12:37:38.921Z,98089.38
2023-01-13T12:40:39.448Z,98089.41
2023-01-13T12:43:39.076Z,98087.91
2023-01-13T12:46:25.233Z,98089.77
2023-01-13T12:48:57.359Z,98091.52
2023-01-13T12:51:28.762Z,98085.45
2023-01-13T12:54:20.889Z,98077.90
2023-01-13T12:56:48.638Z,98078.30
2023-01-13T12:59:22.002Z,98076.93
2023-01-13T13:02:10.812Z,98072.63
2023-01-13T13:04:49.470Z,98070.65
2023-01-13T13:07:32.624Z,98076.28
2023-01-13T13:10:32.105Z,98077.83
2023-01-13T13:13:19.362Z,98083.06
2023-01-13T13:15:52.071Z,98090.55
2023-01-13T13:18:22.285Z,98088.59
2023-01-13T13:21:09.145Z,98093.84
2023-01-13T13:24:01.325Z,98096.36
2023-01-13T13:26:33.131Z,98095.68
2023-01-13T13:29:29.753Z,98098.70
2023-01-13T13:32:44.668Z,98102.45
2023-01-13T13:35:40.779Z,98104.38
2023-01-13T13:39:06.206Z,98103.38
2023-01-13T13:41:55.698Z,98110.41
2023-01-13T13:44:59.257Z,98110.09
2023-01-13T13:47:26.449Z,98105.75
2023-01-13T13:49:55.028Z,98105.20
2023-01-13T13:52:30.272Z,98103.62
2023-01-13T13:55:10.139Z,98107.19
2023-01-13T13:57:41.127Z,98107.70
2023-01-13T14:00:23.596Z,98105.10
2023-01-13T14:03:02.315Z,98110.14
2023-01-13T14:05:37.068Z,98109.86
2023-01-13T14:08:35.203Z,98112.21
2023-01-13T14:11:42.257Z,98117.02
2023-01-13T14:14:17.772Z,98122.48
2023-01-13T14:16:45.266Z,98117.94
2023-01-13T14:19:44.867Z,98122.51
2023-01-13T14:22:16.753Z,98124.73
2023-01-13T14:24:49.588Z,98125.34
2023-01-13T14:27:19.382Z,98122.55
2023-01-13T14:29:46.816Z,98126.22
2023-01-13T14:32:20.596Z,98130.60
2023-01-13T14:34:47.960Z,98133.96
2023-01-13T14:37:37.166Z,98131.45
2023-01-13T14:40:06.058Z,98130.79
2023-01-13T14:42:36.025Z,98130.39
2023-01-13T14:45:03.692Z,98131.77
2023-01-13T14:47:35.039Z,98135.23
2023-01-13T14:50:36.927Z,98129.61
2023-01-13T14:53:05.517Z,98131.15
2023-01-13T14:55:42.043Z,98136.46
2023-01-13T14:58:24.746Z,98134.94
2023-01-13T15:01:12.855Z,98135.69
2023-01-13T15:03:42.891Z,98144.27
2023-01-13T15:06:23.632Z,98140.39
2023-01-13T15:08:51.015Z,98143.23
2023-01-13T15:11:25.871Z,98139.73
2023-01-13T15:13:59.464Z,98139.95
2023-01-13T15:16:28.130Z,98141.73
2023-01-13T15:18:56.527Z,98143.82
2023-01-13T15:21:24.261Z,98147.13
2023-01-13T15:23:51.752Z,98149.19
2023-01-13T15:26:21.117Z,98152.05
2023-01-13T15:28:49.359Z,98148.98
2023-01-13T15:31:16.794Z,98142.59
2023-01-13T15:33:44.195Z,98145.89
2023-01-13T15:36:23.939Z,98142.38
2023-01-13T15:38:51.946Z,98140.13
2023-01-13T15:41:39.584Z,98142.99
2023-01-13T15:44:25.414Z,98146.96
2023-01-13T15:46:58.545Z,98149.98
2023-01-13T15:49:35.470Z,98152.88
2023-01-13T15:52:26.283Z,98143.79
2023-01-13T15:54:54.462Z,98143.59
2023-01-13T15:57:27.754Z,98154.61
2023-01-13T15:59:58.015Z,98161.35
2023-01-13T16:02:25.737Z,98158.10
2023-01-13T16:04:54.503Z,98159.39
2023-01-13T16:07:24.201Z,98152.61
2023-01-13T16:09:51.983Z,98152.15
2023-01-13T16:12:19.248Z,98148.51
2023-01-13T16:14:46.385Z,98151.50
2023-01-13T16:17:24.390Z,98158.13
2023-01-13T16:19:52.409Z,98161.69
2023-01-13T16:22:19.822Z,98160.89
2023-01-13T16:24:47.084Z,98162.69
2023-01-13T16:27:17.465Z,98162.84
2023-01-13T16:29:46.006Z,98166.03
2023-01-13T16:32:15.149Z,98170.48
2023-01-13T16:34:42.526Z,98171.17
2023-01-13T16:37:28.231Z,98175.58
2023-01-13T16:39:55.330Z,98177.90
2023-01-13T16:42:23.023Z,98178.24
2023-01-13T16:44:51.018Z,98180.73
2023-01-13T16:47:19.160Z,98179.96
2023-01-13T16:49:47.031Z,98181.72
2023-01-13T16:52:14.458Z,98185.95
2023-01-13T16:54:41.557Z,98181.30
2023-01-13T16:57:13.273Z,98179.73
2023-01-13T16:59:40.301Z,98178.37
2023-01-13T17:02:14.985Z,98182.23
2023-01-13T17:04:42.070Z,98184.34
2023-01-13T17:07:11.990Z,98182.02
2023-01-13T17:09:39.102Z,98184.55
2023-01-13T17:12:06.758Z,98183.14
2023-01-13T17:14:33.707Z,98184.77
2023-01-13T17:17:00.745Z,98185.76
2023-01-13T17:19:27.914Z,98183.52
2023-01-13T17:21:55.263Z,98189.42
2023-01-13T17:24:22.289Z,98179.52
2023-01-13T17:26:51.278Z,98183.19
2023-01-13T17:29:23.632Z,98182.05
2023-01-13T17:31:52.001Z,98180.32
2023-01-13T17:34:20.002Z,98179.67
2023-01-13T17:36:47.690Z,98183.09
2023-01-13T17:39:20.338Z,98181.29
2023-01-13T17:41:48.343Z,98184.06
2023-01-13T17:44:16.891Z,98181.17
2023-01-13T17:46:44.835Z,98182.92
2023-01-13T17:49:17.155Z,98189.34
2023-01-13T17:51:45.528Z,98186.17
2023-01-13T17:54:12.746Z,98186.02
2023-01-13T17:56:41.483Z,98192.65
2023-01-13T17:59:10.617Z,98201.44
2023-01-13T18:01:39.241Z,98202.57
2023-01-13T18:04:07.474Z,98204.30
2023-01-13T18:06:35.367Z,98207.77
2023-01-13T18:09:02.706Z,98208.59
2023-01-13T18:11:30.007Z,98210.90
2023-01-13T18:14:06.204Z,98210.62
2023-01-13T18:16:33.742Z,98208.59
2023-01-13T18:19:19.761Z,98206.84
2023-01-13T18:22:06.748Z,98208.33
2023-01-13T18:24:52.848Z,98214.79
2023-01-13T18:27:24.100Z,98225.23
2023-01-13T18:29:53.843Z,98228.62
2023-01-13T18:32:22.412Z,98232.08
2023-01-13T18:34:56.114Z,98236.36
2023-01-13T18:37:29.161Z,98244.80
2023-01-13T18:39:56.206Z,98255.16
2023-01-13T18:42:42.881Z,98258.55
2023-01-13T18:45:10.768Z,98262.18
2023-01-13T18:47:39.560Z,98272.41
2023-01-13T18:50:07.678Z,98276.78
2023-01-13T18:52:36.106Z,98276.44
2023-01-13T18:55:03.205Z,98276.73
2023-01-13T18:57:30.614Z,98275.34
2023-01-13T18:59:58.067Z,98277.91
2023-01-13T19:02:26.909Z,98271.23
2023-01-13T19:04:54.959Z,98275.02
2023-01-13T19:07:28.799Z,98276.42
2023-01-13T19:09:56.365Z,98284.76
2023-01-13T19:12:26.559Z,98293.45
2023-01-13T19:15:01.046Z,98299.33
2023-01-13T19:17:32.808Z,98306.41
2023-01-13T19:20:00.266Z,98306.21
2023-01-13T19:22:30.604Z,98306.54
2023-01-13T19:24:58.236Z,98311.81
2023-01-13T19:27:30.703Z,98306.18
2023-01-13T19:30:02.332Z,98314.16
2023-01-13T19:32:33.071Z,98318.91
2023-01-13T19:35:00.238Z,98323.36
2023-01-13T19:37:31.850Z,98324.45
2023-01-13T19:39:59.363Z,98335.33
2023-01-13T19:42:46.079Z,98339.58
2023-01-13T19:45:27.310Z,98343.96
2023-01-13T19:47:55.075Z,98341.05
2023-01-13T19:50:22.139Z,98340.90
2023-01-13T19:52:49.475Z,98343.92
2023-01-13T19:55:16.730Z,98340.95
2023-01-13T19:57:43.874Z,98342.58
2023-01-13T20:00:12.754Z,98352.67
2023-01-13T20:02:45.403Z,98358.40
2023-01-13T20:05:18.428Z,98358.79
2023-01-13T20:07:45.869Z,98361.02
2023-01-13T20:10:13.855Z,98360.67
2023-01-13T20:12:42.180Z,98359.61
2023-01-13T20:15:10.411Z,98361.56
2023-01-13T20:17:37.772Z,98360.76
2023-01-13T20:20:05.446Z,98357.33
2023-01-13T20:22:33.125Z,98359.79
2023-01-13T20:25:00.211Z,98368.21
2023-01-13T20:27:27.336Z,98372.40
2023-01-13T20:29:54.297Z,98377.39
2023-01-13T20:32:21.647Z,98380.24
2023-01-13T20:34:48.594Z,98383.48
2023-01-13T20:37:15.735Z,98380.28
2023-01-13T20:39:48.692Z,98386.60
2023-01-13T20:42:31.281Z,98393.02
2023-01-13T20:44:59.949Z,98395.49
2023-01-13T20:47:30.444Z,98393.43
2023-01-13T20:49:57.593Z,98396.82
2023-01-13T20:52:25.146Z,98399.80
2023-01-13T20:54:52.307Z,98403.20
2023-01-13T20:57:19.686Z,98406.03
2023-01-13T20:59:46.909Z,98411.34
2023-01-13T21:02:15.923Z,98410.05
2023-01-13T21:04:43.941Z,98404.91
2023-01-13T21:07:11.313Z,98402.61
2023-01-13T21:09:38.158Z,98406.52
2023-01-13T21:12:24.860Z,98409.94
2023-01-13T21:15:11.204Z,98419.05
2023-01-13T21:17:57.242Z,98414.53
2023-01-13T21:20:24.328Z,98415.91
2023-01-13T21:22:51.691Z,98419.88
2023-01-13T21:25:19.524Z,98423.11
2023-01-13T21:27:46.570Z,98427.89
2023-01-13T21:30:15.779Z,98432.27
2023-01-13T21:32:44.883Z,98433.27
2023-01-13T21:35:13.611Z,98440.61
2023-01-13T21:37:42.838Z,98441.96
2023-01-13T21:40:13.467Z,98443.05
2023-01-13T21:42:59.439Z,98441.44
2023-01-13T21:45:46.032Z,98446.33
2023-01-13T21:48:13.130Z,98449.63
2023-01-13T21:50:40.519Z,98451.78
2023-01-13T21:53:08.378Z,98453.90
2023-01-13T21:55:37.144Z,98460.65
2023-01-13T21:58:14.706Z,98462.34
2023-01-13T22:00:43.816Z,98456.14
2023-01-13T22:03:12.808Z,98455.55
2023-01-13T22:05:40.230Z,98451.20
2023-01-13T22:08:07.949Z,98453.09
2023-01-13T22:10:35.340Z,98456.63
2023-01-13T22:13:23.490Z,98458.09
2023-01-13T22:15:50.646Z,98459.48
2023-01-13T22:18:18.756Z,98454.17
2023-01-13T22:20:46.554Z,98453.36
2023-01-13T22:23:13.897Z,98451.42
2023-01-13T22:25:41.204Z,98454.51
2023-01-13T22:28:09.620Z,98457.37
2023-01-13T22:30:36.934Z,98461.13
2023-01-13T22:33:04.342Z,98462.14
2023-01-13T22:35:31.493Z,98460.65
2023-01-13T22:37:59.144Z,98465.25
2023-01-13T22:40:26.509Z,98468.12
2023-01-13T22:42:53.687Z,98466.58
2023-01-13T22:45:21.006Z,98468.70
2023-01-13T22:47:49.992Z,98473.59
2023-01-13T22:50:21.024Z,98467.73
2023-01-13T22:52:47.898Z,98465.70
2023-01-13T22:55:15.014Z,98472.16
2023-01-13T22:57:47.681Z,98473.92
2023-01-13T23:00:19.428Z,98475.36
2023-01-13T23:02:46.699Z,98470.75
2023-01-13T23:05:14.401Z,98471.30
2023-01-13T23:07:42.324Z,98480.50
2023-01-13T23:10:10.597Z,98489.15
2023-01-13T23:12:38.085Z,98491.84
2023-01-13T23:15:05.864Z,98484.00
2023-01-13T23:17:33.205Z,98485.16
2023-01-13T23:20:07.866Z,98482.84
2023-01-13T23:22:39.655Z,98485.91
2023-01-13T23:25:18.776Z,98491.48
2023-01-13T23:27:50.742Z,98489.57
2023-01-13T23:30:18.448Z,98485.71
2023-01-13T23:32:45.445Z,98489.64
2023-01-13T23:35:12.672Z,98491.91
2023-01-13T23:37:39.711Z,98496.48
2023-01-13T23:40:07.386Z,98495.11
2023-01-13T23:42:34.652Z,98501.15
2023-01-13T23:45:02.428Z,98504.39
2023-01-13T23:47:29.659Z,98503.65
2023-01-13T23:49:57.011Z,98504.33
2023-01-13T23:52:24.476Z,98502.11
2023-01-13T23:54:51.547Z,98508.89
2023-01-13T23:57:18.927Z,98508.10
2023-01-13T23:59:47.413Z,98503.38
